Alba, Michigan
Current Conditions -  °F | °C
As of 12:55 PM on Sunday 21 Dec 2014 (Local Time) from KACB Reporting Station
Haze Haze  
Wind Chill: 27°   Ceiling: 1200
Heat Index: 33°   Visibility: 5mi
Dew Point: 29°   Wind: 6mph
Humidity: 87%   Direction: 170°S
Pressure: 30.17"   Gusts: NA
Location:  44.97°N, 84.97°W
Report Text: KACB 211755Z AUTO 17005KT 5SM BR OVC012 01/M01 A3017 RMK AO2 T00051015 10005 21025
Loading
Personal Weather Stations






























Interactive Weather Map New forecast layout! Learn more

10-Day Weather Forecast

Advertisements
Track Severe Weather on mobile